sensor_id;sensor_type;location;lat;lon;timestamp;P1;durP1;ratioP1;P2;durP2;ratioP2
53261;SDS011;39658;51.090;-1.786;2023-05-16T00:01:57;3.63;;;0.98;;
53261;SDS011;39658;51.090;-1.786;2023-05-16T00:04:24;4.10;;;0.70;;
53261;SDS011;39658;51.090;-1.786;2023-05-16T00:06:51;3.20;;;0.60;;
53261;SDS011;39658;51.090;-1.786;2023-05-16T00:09:19;3.28;;;1.08;;
53261;SDS011;39658;51.090;-1.786;2023-05-16T00:11:46;3.90;;;0.88;;
53261;SDS011;39658;51.090;-1.786;2023-05-16T00:14:14;2.33;;;0.70;;
53261;SDS011;39658;51.090;-1.786;2023-05-16T00:16:41;2.10;;;0.77;;
53261;SDS011;39658;51.090;-1.786;2023-05-16T00:19:08;2.05;;;1.00;;
53261;SDS011;39658;51.090;-1.786;2023-05-16T00:21:35;4.65;;;1.10;;
53261;SDS011;39658;51.090;-1.786;2023-05-16T00:24:02;4.10;;;1.15;;
53261;SDS011;39658;51.090;-1.786;2023-05-16T00:26:31;2.97;;;0.90;;
53261;SDS011;39658;51.090;-1.786;2023-05-16T00:28:57;1.63;;;0.90;;
53261;SDS011;39658;51.090;-1.786;2023-05-16T00:31:24;4.45;;;1.15;;
53261;SDS011;39658;51.090;-1.786;2023-05-16T00:33:51;2.60;;;1.20;;
53261;SDS011;39658;51.090;-1.786;2023-05-16T00:36:18;3.55;;;0.93;;
53261;SDS011;39658;51.090;-1.786;2023-05-16T00:38:45;2.05;;;0.80;;
53261;SDS011;39658;51.090;-1.786;2023-05-16T00:41:12;5.38;;;1.10;;
53261;SDS011;39658;51.090;-1.786;2023-05-16T00:43:41;3.45;;;0.80;;
53261;SDS011;39658;51.090;-1.786;2023-05-16T00:46:07;2.03;;;0.82;;
53261;SDS011;39658;51.090;-1.786;2023-05-16T00:48:34;6.28;;;0.82;;
53261;SDS011;39658;51.090;-1.786;2023-05-16T00:51:01;7.05;;;1.15;;
53261;SDS011;39658;51.090;-1.786;2023-05-16T00:53:28;4.82;;;1.17;;
53261;SDS011;39658;51.090;-1.786;2023-05-16T00:55:55;3.55;;;0.80;;
53261;SDS011;39658;51.090;-1.786;2023-05-16T00:58:22;4.03;;;0.70;;
53261;SDS011;39658;51.090;-1.786;2023-05-16T01:00:51;2.38;;;0.70;;
53261;SDS011;39658;51.090;-1.786;2023-05-16T01:03:18;2.53;;;0.70;;
53261;SDS011;39658;51.090;-1.786;2023-05-16T01:05:45;2.92;;;1.13;;
53261;SDS011;39658;51.090;-1.786;2023-05-16T01:08:12;1.33;;;0.52;;
53261;SDS011;39658;51.090;-1.786;2023-05-16T01:10:42;5.55;;;0.85;;
53261;SDS011;39658;51.090;-1.786;2023-05-16T01:13:16;2.85;;;0.70;;
53261;SDS011;39658;51.090;-1.786;2023-05-16T01:15:51;3.70;;;1.23;;
53261;SDS011;39658;51.090;-1.786;2023-05-16T01:18:28;3.88;;;1.23;;
53261;SDS011;39658;51.090;-1.786;2023-05-16T01:21:01;3.38;;;0.95;;
53261;SDS011;39658;51.090;-1.786;2023-05-16T01:23:39;4.60;;;1.35;;
53261;SDS011;39658;51.090;-1.786;2023-05-16T01:26:15;3.63;;;1.10;;
53261;SDS011;39658;51.090;-1.786;2023-05-16T01:28:45;1.73;;;0.60;;
53261;SDS011;39658;51.090;-1.786;2023-05-16T01:31:14;3.42;;;0.82;;
53261;SDS011;39658;51.090;-1.786;2023-05-16T01:33:41;4.72;;;0.90;;
53261;SDS011;39658;51.090;-1.786;2023-05-16T01:36:10;5.13;;;1.05;;
53261;SDS011;39658;51.090;-1.786;2023-05-16T01:38:44;10.23;;;0.98;;
53261;SDS011;39658;51.090;-1.786;2023-05-16T01:41:24;3.13;;;0.80;;
53261;SDS011;39658;51.090;-1.786;2023-05-16T01:43:55;7.72;;;1.30;;
53261;SDS011;39658;51.090;-1.786;2023-05-16T01:46:29;6.50;;;1.35;;
53261;SDS011;39658;51.090;-1.786;2023-05-16T01:49:01;2.00;;;0.60;;
53261;SDS011;39658;51.090;-1.786;2023-05-16T01:51:31;1.25;;;0.63;;
53261;SDS011;39658;51.090;-1.786;2023-05-16T01:54:03;4.22;;;1.35;;
53261;SDS011;39658;51.090;-1.786;2023-05-16T01:56:33;2.35;;;1.00;;
53261;SDS011;39658;51.090;-1.786;2023-05-16T01:59:02;1.50;;;0.70;;
53261;SDS011;39658;51.090;-1.786;2023-05-16T02:01:30;3.67;;;0.93;;
53261;SDS011;39658;51.090;-1.786;2023-05-16T02:03:57;1.85;;;0.88;;
53261;SDS011;39658;51.090;-1.786;2023-05-16T02:06:24;5.05;;;0.90;;
53261;SDS011;39658;51.090;-1.786;2023-05-16T02:08:51;3.47;;;0.95;;
53261;SDS011;39658;51.090;-1.786;2023-05-16T02:11:18;10.35;;;1.42;;
53261;SDS011;39658;51.090;-1.786;2023-05-16T02:13:46;7.55;;;1.48;;
53261;SDS011;39658;51.090;-1.786;2023-05-16T02:16:13;3.67;;;1.00;;
53261;SDS011;39658;51.090;-1.786;2023-05-16T02:18:40;3.08;;;1.20;;
53261;SDS011;39658;51.090;-1.786;2023-05-16T02:21:09;7.13;;;0.73;;
53261;SDS011;39658;51.090;-1.786;2023-05-16T02:23:35;3.00;;;0.95;;
53261;SDS011;39658;51.090;-1.786;2023-05-16T02:26:02;3.53;;;1.10;;
53261;SDS011;39658;51.090;-1.786;2023-05-16T02:28:29;2.85;;;0.88;;
53261;SDS011;39658;51.090;-1.786;2023-05-16T02:30:57;5.63;;;1.42;;
53261;SDS011;39658;51.090;-1.786;2023-05-16T02:33:25;2.90;;;1.45;;
53261;SDS011;39658;51.090;-1.786;2023-05-16T02:35:52;2.47;;;1.10;;
53261;SDS011;39658;51.090;-1.786;2023-05-16T02:38:19;3.25;;;1.25;;
53261;SDS011;39658;51.090;-1.786;2023-05-16T02:40:46;2.35;;;0.77;;
53261;SDS011;39658;51.090;-1.786;2023-05-16T02:43:12;3.63;;;0.95;;
53261;SDS011;39658;51.090;-1.786;2023-05-16T02:45:39;4.13;;;1.00;;
53261;SDS011;39658;51.090;-1.786;2023-05-16T02:48:07;3.30;;;1.20;;
53261;SDS011;39658;51.090;-1.786;2023-05-16T02:50:34;2.58;;;1.10;;
53261;SDS011;39658;51.090;-1.786;2023-05-16T02:53:01;6.35;;;1.00;;
53261;SDS011;39658;51.090;-1.786;2023-05-16T02:55:28;2.03;;;0.80;;
53261;SDS011;39658;51.090;-1.786;2023-05-16T02:57:55;3.67;;;1.10;;
53261;SDS011;39658;51.090;-1.786;2023-05-16T03:00:22;3.00;;;1.38;;
53261;SDS011;39658;51.090;-1.786;2023-05-16T03:02:49;7.45;;;1.85;;
53261;SDS011;39658;51.090;-1.786;2023-05-16T03:05:17;3.75;;;1.02;;
53261;SDS011;39658;51.090;-1.786;2023-05-16T03:07:44;2.58;;;1.02;;
53261;SDS011;39658;51.090;-1.786;2023-05-16T03:10:11;4.88;;;1.35;;
53261;SDS011;39658;51.090;-1.786;2023-05-16T03:12:37;1.95;;;0.93;;
53261;SDS011;39658;51.090;-1.786;2023-05-16T03:15:05;4.03;;;1.48;;
53261;SDS011;39658;51.090;-1.786;2023-05-16T03:17:33;4.70;;;1.23;;
53261;SDS011;39658;51.090;-1.786;2023-05-16T03:20:00;8.48;;;1.52;;
53261;SDS011;39658;51.090;-1.786;2023-05-16T03:22:30;5.03;;;1.13;;
53261;SDS011;39658;51.090;-1.786;2023-05-16T03:24:57;7.38;;;1.73;;
53261;SDS011;39658;51.090;-1.786;2023-05-16T03:27:24;8.60;;;1.13;;
53261;SDS011;39658;51.090;-1.786;2023-05-16T03:29:52;4.53;;;1.10;;
53261;SDS011;39658;51.090;-1.786;2023-05-16T03:32:19;2.45;;;1.17;;
53261;SDS011;39658;51.090;-1.786;2023-05-16T03:34:45;4.28;;;1.30;;
53261;SDS011;39658;51.090;-1.786;2023-05-16T03:37:12;6.20;;;1.73;;
53261;SDS011;39658;51.090;-1.786;2023-05-16T03:39:41;7.18;;;1.67;;
53261;SDS011;39658;51.090;-1.786;2023-05-16T03:42:08;3.08;;;1.20;;
53261;SDS011;39658;51.090;-1.786;2023-05-16T03:44:35;3.22;;;1.25;;
53261;SDS011;39658;51.090;-1.786;2023-05-16T03:47:02;2.22;;;1.13;;
53261;SDS011;39658;51.090;-1.786;2023-05-16T03:49:29;3.63;;;1.05;;
53261;SDS011;39658;51.090;-1.786;2023-05-16T03:51:56;9.95;;;1.60;;
53261;SDS011;39658;51.090;-1.786;2023-05-16T03:54:22;3.22;;;1.13;;
53261;SDS011;39658;51.090;-1.786;2023-05-16T03:56:51;4.95;;;1.33;;
53261;SDS011;39658;51.090;-1.786;2023-05-16T03:59:17;9.48;;;2.15;;
53261;SDS011;39658;51.090;-1.786;2023-05-16T04:01:44;6.20;;;1.20;;
53261;SDS011;39658;51.090;-1.786;2023-05-16T04:04:11;3.83;;;1.05;;
53261;SDS011;39658;51.090;-1.786;2023-05-16T04:06:38;2.75;;;1.15;;
53261;SDS011;39658;51.090;-1.786;2023-05-16T04:09:06;2.75;;;1.45;;
53261;SDS011;39658;51.090;-1.786;2023-05-16T04:11:33;1.83;;;0.90;;
53261;SDS011;39658;51.090;-1.786;2023-05-16T04:14:02;8.88;;;1.77;;
53261;SDS011;39658;51.090;-1.786;2023-05-16T04:16:28;2.13;;;0.52;;
53261;SDS011;39658;51.090;-1.786;2023-05-16T04:18:55;10.30;;;2.25;;
53261;SDS011;39658;51.090;-1.786;2023-05-16T04:21:23;2.55;;;0.90;;
53261;SDS011;39658;51.090;-1.786;2023-05-16T04:23:50;3.80;;;1.35;;
53261;SDS011;39658;51.090;-1.786;2023-05-16T04:26:17;9.68;;;1.63;;
53261;SDS011;39658;51.090;-1.786;2023-05-16T04:28:46;4.10;;;1.65;;
53261;SDS011;39658;51.090;-1.786;2023-05-16T04:31:14;4.72;;;0.73;;
53261;SDS011;39658;51.090;-1.786;2023-05-16T04:33:40;7.60;;;1.45;;
53261;SDS011;39658;51.090;-1.786;2023-05-16T04:36:07;5.22;;;1.30;;
53261;SDS011;39658;51.090;-1.786;2023-05-16T04:38:34;2.88;;;1.00;;
53261;SDS011;39658;51.090;-1.786;2023-05-16T04:41:01;4.68;;;1.27;;
53261;SDS011;39658;51.090;-1.786;2023-05-16T04:43:28;12.50;;;1.45;;
53261;SDS011;39658;51.090;-1.786;2023-05-16T04:45:56;1.63;;;0.73;;
53261;SDS011;39658;51.090;-1.786;2023-05-16T04:48:25;2.38;;;0.95;;
53261;SDS011;39658;51.090;-1.786;2023-05-16T04:50:51;2.60;;;0.82;;
53261;SDS011;39658;51.090;-1.786;2023-05-16T04:53:18;3.40;;;1.38;;
53261;SDS011;39658;51.090;-1.786;2023-05-16T04:55:45;7.88;;;1.15;;
53261;SDS011;39658;51.090;-1.786;2023-05-16T04:58:12;6.80;;;1.23;;
53261;SDS011;39658;51.090;-1.786;2023-05-16T05:00:39;4.10;;;0.95;;
53261;SDS011;39658;51.090;-1.786;2023-05-16T05:03:05;3.67;;;1.02;;
53261;SDS011;39658;51.090;-1.786;2023-05-16T05:05:34;4.63;;;1.17;;
53261;SDS011;39658;51.090;-1.786;2023-05-16T05:08:01;19.58;;;1.63;;
53261;SDS011;39658;51.090;-1.786;2023-05-16T05:10:28;2.35;;;1.33;;
53261;SDS011;39658;51.090;-1.786;2023-05-16T05:12:55;9.13;;;1.65;;
53261;SDS011;39658;51.090;-1.786;2023-05-16T05:15:22;2.97;;;0.90;;
53261;SDS011;39658;51.090;-1.786;2023-05-16T05:17:49;4.68;;;1.10;;
53261;SDS011;39658;51.090;-1.786;2023-05-16T05:20:16;4.18;;;1.35;;
53261;SDS011;39658;51.090;-1.786;2023-05-16T05:22:44;2.08;;;0.93;;
53261;SDS011;39658;51.090;-1.786;2023-05-16T05:25:11;6.53;;;1.23;;
53261;SDS011;39658;51.090;-1.786;2023-05-16T05:27:38;6.28;;;1.25;;
53261;SDS011;39658;51.090;-1.786;2023-05-16T05:30:05;4.93;;;1.23;;
53261;SDS011;39658;51.090;-1.786;2023-05-16T05:32:33;11.23;;;1.73;;
53261;SDS011;39658;51.090;-1.786;2023-05-16T05:34:59;4.82;;;0.70;;
53261;SDS011;39658;51.090;-1.786;2023-05-16T05:37:26;3.60;;;0.95;;
53261;SDS011;39658;51.090;-1.786;2023-05-16T05:39:54;3.17;;;0.85;;
53261;SDS011;39658;51.090;-1.786;2023-05-16T05:42:21;3.88;;;1.08;;
53261;SDS011;39658;51.090;-1.786;2023-05-16T05:44:48;4.65;;;0.70;;
53261;SDS011;39658;51.090;-1.786;2023-05-16T05:47:15;4.38;;;1.13;;
53261;SDS011;39658;51.090;-1.786;2023-05-16T05:49:42;2.08;;;1.17;;
53261;SDS011;39658;51.090;-1.786;2023-05-16T05:52:09;4.80;;;1.05;;
53261;SDS011;39658;51.090;-1.786;2023-05-16T05:54:36;3.10;;;1.05;;
53261;SDS011;39658;51.090;-1.786;2023-05-16T05:57:04;4.28;;;1.25;;
53261;SDS011;39658;51.090;-1.786;2023-05-16T05:59:31;1.92;;;0.90;;
53261;SDS011;39658;51.090;-1.786;2023-05-16T06:01:58;8.25;;;1.77;;
53261;SDS011;39658;51.090;-1.786;2023-05-16T06:04:24;2.50;;;0.80;;
53261;SDS011;39658;51.090;-1.786;2023-05-16T06:06:51;5.43;;;0.95;;
53261;SDS011;39658;51.090;-1.786;2023-05-16T06:09:19;4.45;;;0.73;;
53261;SDS011;39658;51.090;-1.786;2023-05-16T06:11:46;2.13;;;0.82;;
53261;SDS011;39658;51.090;-1.786;2023-05-16T06:14:14;6.65;;;1.02;;
53261;SDS011;39658;51.090;-1.786;2023-05-16T06:16:41;3.67;;;1.27;;
53261;SDS011;39658;51.090;-1.786;2023-05-16T06:19:08;2.05;;;0.95;;
53261;SDS011;39658;51.090;-1.786;2023-05-16T06:21:36;2.80;;;0.95;;
53261;SDS011;39658;51.090;-1.786;2023-05-16T06:24:03;2.30;;;0.98;;
53261;SDS011;39658;51.090;-1.786;2023-05-16T06:26:30;1.95;;;0.68;;
53261;SDS011;39658;51.090;-1.786;2023-05-16T06:28:58;5.93;;;1.23;;
53261;SDS011;39658;51.090;-1.786;2023-05-16T06:31:27;2.95;;;1.05;;
53261;SDS011;39658;51.090;-1.786;2023-05-16T06:33:53;5.88;;;0.70;;
53261;SDS011;39658;51.090;-1.786;2023-05-16T06:36:20;6.20;;;0.85;;
53261;SDS011;39658;51.090;-1.786;2023-05-16T06:38:48;2.42;;;0.45;;
53261;SDS011;39658;51.090;-1.786;2023-05-16T06:41:15;5.18;;;0.90;;
53261;SDS011;39658;51.090;-1.786;2023-05-16T06:43:41;6.95;;;0.93;;
53261;SDS011;39658;51.090;-1.786;2023-05-16T06:46:08;4.10;;;1.38;;
53261;SDS011;39658;51.090;-1.786;2023-05-16T06:48:36;10.75;;;1.25;;
53261;SDS011;39658;51.090;-1.786;2023-05-16T06:51:03;1.98;;;0.68;;
53261;SDS011;39658;51.090;-1.786;2023-05-16T06:53:30;2.50;;;0.75;;
53261;SDS011;39658;51.090;-1.786;2023-05-16T06:55:57;7.55;;;1.15;;
53261;SDS011;39658;51.090;-1.786;2023-05-16T06:58:24;3.25;;;0.75;;
53261;SDS011;39658;51.090;-1.786;2023-05-16T07:00:51;3.67;;;0.93;;
53261;SDS011;39658;51.090;-1.786;2023-05-16T07:03:18;3.38;;;0.85;;
53261;SDS011;39658;51.090;-1.786;2023-05-16T07:05:46;4.97;;;1.05;;
53261;SDS011;39658;51.090;-1.786;2023-05-16T07:08:15;3.67;;;1.05;;
53261;SDS011;39658;51.090;-1.786;2023-05-16T07:10:42;3.00;;;0.95;;
53261;SDS011;39658;51.090;-1.786;2023-05-16T07:13:09;7.70;;;0.63;;
53261;SDS011;39658;51.090;-1.786;2023-05-16T07:15:36;4.43;;;0.82;;
53261;SDS011;39658;51.090;-1.786;2023-05-16T07:18:02;8.13;;;1.13;;
53261;SDS011;39658;51.090;-1.786;2023-05-16T07:20:29;3.72;;;0.80;;
53261;SDS011;39658;51.090;-1.786;2023-05-16T07:22:57;1.90;;;0.70;;
53261;SDS011;39658;51.090;-1.786;2023-05-16T07:25:24;2.30;;;1.00;;
53261;SDS011;39658;51.090;-1.786;2023-05-16T07:27:51;3.63;;;0.85;;
53261;SDS011;39658;51.090;-1.786;2023-05-16T07:30:18;2.60;;;0.98;;
53261;SDS011;39658;51.090;-1.786;2023-05-16T07:32:45;2.40;;;0.70;;
53261;SDS011;39658;51.090;-1.786;2023-05-16T07:35:12;3.63;;;1.05;;
53261;SDS011;39658;51.090;-1.786;2023-05-16T07:37:39;3.72;;;0.98;;
53261;SDS011;39658;51.090;-1.786;2023-05-16T07:40:09;7.25;;;1.02;;
53261;SDS011;39658;51.090;-1.786;2023-05-16T07:42:36;3.75;;;1.13;;
53261;SDS011;39658;51.090;-1.786;2023-05-16T07:45:03;5.47;;;1.33;;
53261;SDS011;39658;51.090;-1.786;2023-05-16T07:47:32;4.25;;;0.60;;
53261;SDS011;39658;51.090;-1.786;2023-05-16T07:49:59;6.57;;;0.90;;
53261;SDS011;39658;51.090;-1.786;2023-05-16T07:52:26;6.45;;;0.93;;
53261;SDS011;39658;51.090;-1.786;2023-05-16T07:54:53;4.03;;;1.02;;
53261;SDS011;39658;51.090;-1.786;2023-05-16T07:57:21;3.03;;;0.75;;
53261;SDS011;39658;51.090;-1.786;2023-05-16T07:59:48;4.68;;;1.30;;
53261;SDS011;39658;51.090;-1.786;2023-05-16T08:02:16;3.42;;;0.85;;
53261;SDS011;39658;51.090;-1.786;2023-05-16T08:04:43;3.15;;;1.15;;
53261;SDS011;39658;51.090;-1.786;2023-05-16T08:07:09;3.05;;;0.90;;
53261;SDS011;39658;51.090;-1.786;2023-05-16T08:09:36;2.55;;;0.88;;
53261;SDS011;39658;51.090;-1.786;2023-05-16T08:12:03;3.45;;;0.68;;
53261;SDS011;39658;51.090;-1.786;2023-05-16T08:14:32;5.18;;;1.10;;
53261;SDS011;39658;51.090;-1.786;2023-05-16T08:16:59;3.97;;;0.95;;
53261;SDS011;39658;51.090;-1.786;2023-05-16T08:19:25;1.38;;;0.73;;
53261;SDS011;39658;51.090;-1.786;2023-05-16T08:21:53;3.45;;;0.90;;
53261;SDS011;39658;51.090;-1.786;2023-05-16T08:24:20;4.40;;;0.90;;
53261;SDS011;39658;51.090;-1.786;2023-05-16T08:26:47;6.30;;;0.98;;
53261;SDS011;39658;51.090;-1.786;2023-05-16T08:29:13;0.88;;;0.32;;
53261;SDS011;39658;51.090;-1.786;2023-05-16T08:31:42;4.03;;;0.90;;
53261;SDS011;39658;51.090;-1.786;2023-05-16T08:34:09;2.42;;;0.57;;
53261;SDS011;39658;51.090;-1.786;2023-05-16T08:36:35;4.40;;;0.85;;
53261;SDS011;39658;51.090;-1.786;2023-05-16T08:39:03;6.55;;;0.93;;
53261;SDS011;39658;51.090;-1.786;2023-05-16T08:41:30;4.03;;;0.95;;
53261;SDS011;39658;51.090;-1.786;2023-05-16T08:43:57;2.00;;;0.65;;
53261;SDS011;39658;51.090;-1.786;2023-05-16T08:46:24;4.72;;;0.63;;
53261;SDS011;39658;51.090;-1.786;2023-05-16T08:48:56;3.47;;;0.90;;
53261;SDS011;39658;51.090;-1.786;2023-05-16T08:51:24;2.50;;;1.00;;
53261;SDS011;39658;51.090;-1.786;2023-05-16T08:54:01;4.20;;;0.90;;
53261;SDS011;39658;51.090;-1.786;2023-05-16T08:56:29;3.25;;;0.93;;
53261;SDS011;39658;51.090;-1.786;2023-05-16T08:58:58;7.03;;;1.08;;
53261;SDS011;39658;51.090;-1.786;2023-05-16T09:01:25;4.75;;;0.68;;
53261;SDS011;39658;51.090;-1.786;2023-05-16T09:03:53;4.72;;;0.90;;
53261;SDS011;39658;51.090;-1.786;2023-05-16T09:06:21;7.40;;;1.17;;
53261;SDS011;39658;51.090;-1.786;2023-05-16T09:08:48;3.88;;;0.82;;
53261;SDS011;39658;51.090;-1.786;2023-05-16T09:11:15;2.92;;;0.60;;
53261;SDS011;39658;51.090;-1.786;2023-05-16T09:13:42;3.25;;;1.02;;
53261;SDS011;39658;51.090;-1.786;2023-05-16T09:16:09;3.10;;;0.95;;
53261;SDS011;39658;51.090;-1.786;2023-05-16T09:18:37;5.45;;;1.75;;
53261;SDS011;39658;51.090;-1.786;2023-05-16T09:21:06;5.72;;;1.10;;
53261;SDS011;39658;51.090;-1.786;2023-05-16T09:23:33;6.60;;;0.95;;
53261;SDS011;39658;51.090;-1.786;2023-05-16T09:26:00;3.03;;;0.98;;
53261;SDS011;39658;51.090;-1.786;2023-05-16T09:28:27;3.63;;;1.15;;
53261;SDS011;39658;51.090;-1.786;2023-05-16T09:30:54;3.75;;;1.23;;
53261;SDS011;39658;51.090;-1.786;2023-05-16T09:33:23;3.15;;;0.95;;
53261;SDS011;39658;51.090;-1.786;2023-05-16T09:35:55;3.78;;;0.90;;
53261;SDS011;39658;51.090;-1.786;2023-05-16T09:38:24;7.38;;;0.93;;
53261;SDS011;39658;51.090;-1.786;2023-05-16T09:40:52;7.10;;;1.20;;
53261;SDS011;39658;51.090;-1.786;2023-05-16T09:43:21;3.42;;;0.68;;
53261;SDS011;39658;51.090;-1.786;2023-05-16T09:45:50;2.92;;;0.82;;
53261;SDS011;39658;51.090;-1.786;2023-05-16T09:48:17;12.05;;;1.10;;
53261;SDS011;39658;51.090;-1.786;2023-05-16T09:50:47;4.05;;;1.27;;
53261;SDS011;39658;51.090;-1.786;2023-05-16T09:53:16;5.78;;;1.23;;
53261;SDS011;39658;51.090;-1.786;2023-05-16T09:55:44;5.43;;;0.88;;
53261;SDS011;39658;51.090;-1.786;2023-05-16T09:58:11;6.03;;;1.40;;
53261;SDS011;39658;51.090;-1.786;2023-05-16T10:00:42;4.45;;;1.17;;
53261;SDS011;39658;51.090;-1.786;2023-05-16T10:03:09;3.40;;;0.77;;
53261;SDS011;39658;51.090;-1.786;2023-05-16T10:05:36;5.22;;;1.25;;
53261;SDS011;39658;51.090;-1.786;2023-05-16T10:08:04;9.57;;;1.42;;
53261;SDS011;39658;51.090;-1.786;2023-05-16T10:10:33;7.70;;;1.48;;
53261;SDS011;39658;51.090;-1.786;2023-05-16T10:13:05;10.73;;;1.73;;
53261;SDS011;39658;51.090;-1.786;2023-05-16T10:15:34;46.85;;;3.75;;
53261;SDS011;39658;51.090;-1.786;2023-05-16T10:18:02;21.10;;;2.08;;
53261;SDS011;39658;51.090;-1.786;2023-05-16T10:20:35;4.18;;;1.27;;
53261;SDS011;39658;51.090;-1.786;2023-05-16T10:23:03;4.13;;;0.85;;
53261;SDS011;39658;51.090;-1.786;2023-05-16T10:25:33;4.00;;;1.13;;
53261;SDS011;39658;51.090;-1.786;2023-05-16T10:28:02;6.55;;;1.55;;
53261;SDS011;39658;51.090;-1.786;2023-05-16T10:30:32;9.63;;;1.60;;
53261;SDS011;39658;51.090;-1.786;2023-05-16T10:33:00;5.50;;;1.17;;
53261;SDS011;39658;51.090;-1.786;2023-05-16T10:35:27;3.25;;;1.13;;
53261;SDS011;39658;51.090;-1.786;2023-05-16T10:37:54;4.18;;;1.48;;
53261;SDS011;39658;51.090;-1.786;2023-05-16T10:40:23;4.93;;;1.20;;
53261;SDS011;39658;51.090;-1.786;2023-05-16T10:42:53;7.18;;;2.28;;
53261;SDS011;39658;51.090;-1.786;2023-05-16T10:45:21;8.57;;;1.33;;
53261;SDS011;39658;51.090;-1.786;2023-05-16T10:47:53;5.65;;;0.93;;
53261;SDS011;39658;51.090;-1.786;2023-05-16T10:50:30;7.70;;;1.52;;
53261;SDS011;39658;51.090;-1.786;2023-05-16T10:53:12;3.92;;;1.23;;
53261;SDS011;39658;51.090;-1.786;2023-05-16T10:55:43;4.72;;;1.33;;
53261;SDS011;39658;51.090;-1.786;2023-05-16T10:58:10;2.97;;;1.05;;
53261;SDS011;39658;51.090;-1.786;2023-05-16T11:00:38;4.82;;;1.30;;
53261;SDS011;39658;51.090;-1.786;2023-05-16T11:03:06;6.65;;;1.65;;
53261;SDS011;39658;51.090;-1.786;2023-05-16T11:05:49;5.85;;;1.40;;
53261;SDS011;39658;51.090;-1.786;2023-05-16T11:08:18;5.88;;;1.60;;
53261;SDS011;39658;51.090;-1.786;2023-05-16T11:10:45;7.50;;;1.25;;
53261;SDS011;39658;51.090;-1.786;2023-05-16T11:13:12;5.45;;;1.40;;
53261;SDS011;39658;51.090;-1.786;2023-05-16T11:15:43;4.43;;;1.25;;
53261;SDS011;39658;51.090;-1.786;2023-05-16T11:18:14;11.68;;;1.48;;
53261;SDS011;39658;51.090;-1.786;2023-05-16T11:20:42;6.25;;;1.25;;
53261;SDS011;39658;51.090;-1.786;2023-05-16T11:23:22;5.50;;;1.55;;
53261;SDS011;39658;51.090;-1.786;2023-05-16T11:25:51;4.78;;;1.33;;
53261;SDS011;39658;51.090;-1.786;2023-05-16T11:28:23;3.67;;;1.00;;
53261;SDS011;39658;51.090;-1.786;2023-05-16T11:30:51;7.22;;;1.63;;
53261;SDS011;39658;51.090;-1.786;2023-05-16T11:33:21;4.78;;;1.45;;
53261;SDS011;39658;51.090;-1.786;2023-05-16T11:38:28;4.20;;;1.20;;
53261;SDS011;39658;51.090;-1.786;2023-05-16T11:41:00;6.75;;;1.80;;
53261;SDS011;39658;51.090;-1.786;2023-05-16T11:43:28;3.95;;;1.50;;
53261;SDS011;39658;51.090;-1.786;2023-05-16T11:46:02;4.95;;;1.27;;
53261;SDS011;39658;51.090;-1.786;2023-05-16T11:48:30;3.65;;;1.25;;
53261;SDS011;39658;51.090;-1.786;2023-05-16T11:50:57;7.80;;;1.48;;
53261;SDS011;39658;51.090;-1.786;2023-05-16T11:53:23;5.78;;;1.83;;
53261;SDS011;39658;51.090;-1.786;2023-05-16T11:55:50;7.30;;;1.40;;
53261;SDS011;39658;51.090;-1.786;2023-05-16T11:58:17;3.85;;;1.33;;
53261;SDS011;39658;51.090;-1.786;2023-05-16T12:00:48;5.65;;;1.40;;
53261;SDS011;39658;51.090;-1.786;2023-05-16T12:03:17;6.13;;;1.45;;
53261;SDS011;39658;51.090;-1.786;2023-05-16T12:05:50;4.78;;;1.85;;
53261;SDS011;39658;51.090;-1.786;2023-05-16T12:08:18;7.93;;;1.27;;
53261;SDS011;39658;51.090;-1.786;2023-05-16T12:10:47;5.30;;;1.20;;
53261;SDS011;39658;51.090;-1.786;2023-05-16T12:13:14;6.82;;;1.70;;
53261;SDS011;39658;51.090;-1.786;2023-05-16T12:15:41;6.45;;;1.90;;
53261;SDS011;39658;51.090;-1.786;2023-05-16T12:18:09;7.38;;;1.90;;
53261;SDS011;39658;51.090;-1.786;2023-05-16T12:20:36;6.28;;;1.67;;
53261;SDS011;39658;51.090;-1.786;2023-05-16T12:23:06;9.25;;;2.30;;
53261;SDS011;39658;51.090;-1.786;2023-05-16T12:25:36;6.00;;;1.90;;
53261;SDS011;39658;51.090;-1.786;2023-05-16T12:28:07;6.65;;;2.25;;
53261;SDS011;39658;51.090;-1.786;2023-05-16T12:30:34;8.02;;;2.45;;
53261;SDS011;39658;51.090;-1.786;2023-05-16T12:33:02;8.13;;;2.80;;
53261;SDS011;39658;51.090;-1.786;2023-05-16T12:35:33;7.30;;;1.75;;
53261;SDS011;39658;51.090;-1.786;2023-05-16T12:38:02;8.43;;;1.98;;
53261;SDS011;39658;51.090;-1.786;2023-05-16T12:40:31;10.80;;;2.53;;
53261;SDS011;39658;51.090;-1.786;2023-05-16T12:42:58;8.80;;;1.77;;
53261;SDS011;39658;51.090;-1.786;2023-05-16T12:45:25;9.93;;;2.53;;
53261;SDS011;39658;51.090;-1.786;2023-05-16T12:47:53;6.80;;;2.08;;
53261;SDS011;39658;51.090;-1.786;2023-05-16T12:50:19;8.50;;;2.15;;
53261;SDS011;39658;51.090;-1.786;2023-05-16T12:52:47;6.93;;;2.83;;
53261;SDS011;39658;51.090;-1.786;2023-05-16T12:55:15;28.88;;;3.45;;
53261;SDS011;39658;51.090;-1.786;2023-05-16T12:57:44;12.75;;;2.70;;
53261;SDS011;39658;51.090;-1.786;2023-05-16T13:00:12;7.20;;;1.70;;
53261;SDS011;39658;51.090;-1.786;2023-05-16T13:02:40;7.15;;;2.25;;
53261;SDS011;39658;51.090;-1.786;2023-05-16T13:05:07;11.05;;;2.17;;
53261;SDS011;39658;51.090;-1.786;2023-05-16T13:07:34;9.55;;;1.95;;
53261;SDS011;39658;51.090;-1.786;2023-05-16T13:10:03;7.38;;;2.53;;
53261;SDS011;39658;51.090;-1.786;2023-05-16T13:12:31;8.82;;;3.03;;
53261;SDS011;39658;51.090;-1.786;2023-05-16T13:15:00;6.80;;;2.10;;
53261;SDS011;39658;51.090;-1.786;2023-05-16T13:17:26;8.05;;;2.22;;
53261;SDS011;39658;51.090;-1.786;2023-05-16T13:19:54;5.65;;;1.73;;
53261;SDS011;39658;51.090;-1.786;2023-05-16T13:22:21;8.45;;;2.10;;
53261;SDS011;39658;51.090;-1.786;2023-05-16T13:24:48;10.32;;;1.90;;
53261;SDS011;39658;51.090;-1.786;2023-05-16T13:27:14;6.57;;;2.13;;
53261;SDS011;39658;51.090;-1.786;2023-05-16T13:29:42;6.93;;;2.33;;
53261;SDS011;39658;51.090;-1.786;2023-05-16T13:32:10;13.00;;;3.15;;
53261;SDS011;39658;51.090;-1.786;2023-05-16T13:34:37;6.63;;;1.98;;
53261;SDS011;39658;51.090;-1.786;2023-05-16T13:37:04;9.40;;;2.70;;
53261;SDS011;39658;51.090;-1.786;2023-05-16T13:39:31;6.85;;;1.92;;
53261;SDS011;39658;51.090;-1.786;2023-05-16T13:41:58;8.93;;;2.63;;
53261;SDS011;39658;51.090;-1.786;2023-05-16T13:44:25;8.48;;;2.75;;
53261;SDS011;39658;51.090;-1.786;2023-05-16T13:46:52;10.85;;;2.20;;
53261;SDS011;39658;51.090;-1.786;2023-05-16T13:49:20;8.68;;;2.13;;
53261;SDS011;39658;51.090;-1.786;2023-05-16T13:51:47;10.40;;;2.40;;
53261;SDS011;39658;51.090;-1.786;2023-05-16T13:54:16;11.15;;;3.00;;
53261;SDS011;39658;51.090;-1.786;2023-05-16T13:56:42;10.80;;;3.00;;
53261;SDS011;39658;51.090;-1.786;2023-05-16T13:59:10;7.53;;;2.10;;
53261;SDS011;39658;51.090;-1.786;2023-05-16T14:01:36;13.57;;;2.75;;
53261;SDS011;39658;51.090;-1.786;2023-05-16T14:04:03;6.22;;;2.35;;
53261;SDS011;39658;51.090;-1.786;2023-05-16T14:06:32;7.75;;;2.40;;
53261;SDS011;39658;51.090;-1.786;2023-05-16T14:08:59;8.60;;;2.70;;
53261;SDS011;39658;51.090;-1.786;2023-05-16T14:11:25;5.90;;;2.00;;
53261;SDS011;39658;51.090;-1.786;2023-05-16T14:13:52;7.13;;;2.22;;
53261;SDS011;39658;51.090;-1.786;2023-05-16T14:16:19;7.95;;;1.88;;
53261;SDS011;39658;51.090;-1.786;2023-05-16T14:18:46;9.20;;;2.58;;
53261;SDS011;39658;51.090;-1.786;2023-05-16T14:21:13;7.78;;;2.67;;
53261;SDS011;39658;51.090;-1.786;2023-05-16T14:23:41;5.93;;;2.20;;
53261;SDS011;39658;51.090;-1.786;2023-05-16T14:26:08;8.82;;;2.30;;
53261;SDS011;39658;51.090;-1.786;2023-05-16T14:28:35;7.20;;;2.20;;
53261;SDS011;39658;51.090;-1.786;2023-05-16T14:31:02;10.88;;;2.28;;
53261;SDS011;39658;51.090;-1.786;2023-05-16T14:33:29;7.80;;;2.38;;
53261;SDS011;39658;51.090;-1.786;2023-05-16T14:35:56;5.78;;;2.28;;
53261;SDS011;39658;51.090;-1.786;2023-05-16T14:38:23;7.22;;;1.90;;
53261;SDS011;39658;51.090;-1.786;2023-05-16T14:40:52;6.72;;;2.20;;